Overview Statistics Trail Chart Weather Telemetry Raw packets
 

This is the latest recevied weather packets stored in our database for station/object EA1GGY-1. If no packets are shown the sender has not sent any weather packets the latest 10 day(s).

<< 1 2 3 4 >>
Time Temp. Humidity Pressure Rain* Wind** Luminosity Snow
1788608597 30° C 30% 1019.8 hPa - - - -
1788607996 30° C 29% 1019.8 hPa - - - -
1788607396 30.56° C 29% 1020 hPa - - - -
1788606795 31.11° C 28% 1020 hPa - - - -
1788606194 30.56° C 29% 1020.1 hPa - - - -
1788605593 30.56° C 29% 1020.1 hPa - - - -
1788604992 30° C 29% 1020.2 hPa - - - -
1788604392 30° C 29% 1020.3 hPa - - - -
1788603791 29.44° C 29% 1020.3 hPa - - - -
1788603190 29.44° C 30% 1020.2 hPa - - - -
1788602589 29.44° C 31% 1020.3 hPa - - - -
1788601989 28.89° C 31% 1020.4 hPa - - - -
1788601409 28.33° C 31% 1020.4 hPa - - - -
1788600787 27.78° C 32% 1020.3 hPa - - - -
1788600186 27.22° C 34% 1020.3 hPa - - - -
1788599584 27.22° C 35% 1020.3 hPa - - - -
1788598984 27.22° C 35% 1020.3 hPa - - - -
1788598383 25° C 38% 1020.3 hPa - - - -
1788597782 26.11° C 37% 1020.2 hPa - - - -
1788597181 25° C 45% 1020.2 hPa - - - -
1788596580 23.33° C 58% 1020.4 hPa - - - -
1788595980 22.22° C 61% 1020.4 hPa - - - -
1788595379 21.11° C 63% 1020.4 hPa - - - -
1788594778 20° C 64% 1020.6 hPa - - - -
1788594177 20° C 64% 1020.5 hPa - - - -

* Rain since midnight (hover to see other rain measurements)
** Current wind speed in m/s (hover to see current wind gust speed)